ADDS METAR Data INFO
IDs: Format: Raw Decoded Include TAF

Data at: 0937 UTC 17 Oct 2017

KDYR 161756Z AUTO 02010KT 10SM CLR 17/06 A3036 RMK AO2 SLP297 6//// T01720056 10172 20078 58010 PNO $
KDYR 161656Z AUTO 06006KT 10SM CLR 17/05 A3039 RMK AO2 SLP307 T01670050 PNO $
KDYR 161556Z AUTO 04012KT 10SM CLR 15/06 A3040 RMK AO2 SLP309 T01500061 TSNO PNO $
KDYR 161456Z AUTO 03011KT 10SM CLR 14/07 A3039 RMK AO2 SLP308 6//// T01390067 53012 PNO $
KDYR 161356Z AUTO 02008KT 10SM CLR 12/07 A3038 RMK AO2 SLP306 T01170072 PNO $
KDYR 161256Z AUTO 35004KT 10SM CLR 09/07 A3036 RMK AO2 SLP299 T00890067 PNO $
KDYR 161156Z AUTO 35004KT 10SM CLR 08/06 A3036 RMK AO2 SLP297 6//// 7//// T00780056 10111 20078 53012 PNO $
KDYR 161056Z AUTO 01006KT 9SM CLR 09/06 A3034 RMK AO2 SLP291 T00890061 PNO $
KDYR 160956Z AUTO 03007KT 7SM CLR 09/07 A3033 RMK AO2 SLP287 T00890067 PNO $
KDYR 160856Z AUTO 35005KT 10SM CLR 09/07 A3032 RMK AO2 SLP284 6//// T00890072 51004 PNO $
KDYR 160756Z AUTO 36006KT 10SM CLR 10/07 A3032 RMK AO2 SLP283 T01000072 PNO $
KDYR 160656Z AUTO 01009KT 10SM CLR 11/08 A3032 RMK AO2 SLP282 T01110078 PNO $
KDYR 160556Z AUTO 36007KT 10SM CLR 11/08 A3031 RMK AO2 SLP279 6//// T01110078 10144 20111 402500111 53008 PNO $
KDYR 160456Z AUTO 01006KT 10SM CLR 12/08 A3030 RMK AO2 SLP275 T01170078 PNO $
KDYR 160356Z AUTO 36007KT 10SM CLR 12/08 A3029 RMK AO2 SLP272 T01220078 PNO $
KDYR 160256Z AUTO 01007KT 10SM CLR 13/08 A3028 RMK AO2 SLP269 6//// T01280083 51028 PNO $
KDYR 160156Z AUTO 01006KT 10SM CLR 13/09 A3026 RMK AO2 SLP261 T01330089 PNO $
KDYR 160056Z AUTO 01007KT 10SM CLR 14/09 A3024 RMK AO2 SLP253 T01390094 PNO $
KDYR 152356Z AUTO 36004KT 10SM CLR 14/10 A3020 RMK AO2 SLP241 6//// T01440100 10178 20144 53017 PNO $
KDYR 152256Z AUTO 36007KT 10SM CLR 17/11 A3018 RMK AO2 SLP233 T01670106 PNO $
KDYR 152156Z AUTO 35011KT 10SM CLR 18/11 A3016 RMK AO2 SLP225 T01780111 PNO $